createdAt,value
2018-12-18T00:01:57.551Z,91.40
2018-12-18T00:04:26.143Z,91.30
2018-12-18T00:06:54.831Z,91.40
2018-12-18T00:09:23.414Z,91.60
2018-12-18T00:11:51.985Z,91.60
2018-12-18T00:14:20.615Z,91.80
2018-12-18T00:16:49.249Z,91.90
2018-12-18T00:19:18.589Z,91.90
2018-12-18T00:21:47.211Z,92.10
2018-12-18T00:24:15.923Z,92.00
2018-12-18T00:26:44.522Z,91.90
2018-12-18T00:29:13.279Z,91.80
2018-12-18T00:31:41.933Z,91.80
2018-12-18T00:34:10.689Z,91.60
2018-12-18T00:36:39.314Z,92.10
2018-12-18T00:39:12.191Z,92.20
2018-12-18T00:41:40.812Z,92.30
2018-12-18T00:44:10.257Z,92.10
2018-12-18T00:46:38.876Z,92.10
2018-12-18T00:49:08.395Z,91.50
2018-12-18T00:51:37.618Z,91.20
2018-12-18T00:54:06.223Z,91.40
2018-12-18T00:56:34.887Z,91.40
2018-12-18T00:59:03.491Z,91.40
2018-12-18T01:01:32.163Z,91.70
2018-12-18T01:04:00.805Z,91.90
2018-12-18T01:06:29.467Z,91.70
2018-12-18T01:08:58.071Z,91.70
2018-12-18T01:11:26.741Z,91.70
2018-12-18T01:13:55.322Z,91.80
2018-12-18T01:16:24.004Z,92.00
2018-12-18T01:18:53.208Z,92.20
2018-12-18T01:21:21.812Z,92.20
2018-12-18T01:23:50.560Z,92.40
2018-12-18T01:26:19.236Z,92.10
2018-12-18T01:28:47.844Z,91.90
2018-12-18T01:31:16.530Z,91.90
2018-12-18T01:33:45.183Z,92.30
2018-12-18T01:36:13.815Z,92.00
2018-12-18T01:38:42.452Z,92.20
2018-12-18T01:41:11.371Z,92.40
2018-12-18T01:43:40.541Z,92.60
2018-12-18T01:46:09.152Z,92.20
2018-12-18T01:48:37.797Z,92.10
2018-12-18T01:51:06.523Z,91.90
2018-12-18T01:53:35.131Z,92.00
2018-12-18T01:56:03.889Z,91.90
2018-12-18T01:58:32.547Z,92.10
2018-12-18T02:01:01.191Z,92.30
2018-12-18T02:03:29.835Z,92.20
2018-12-18T02:05:58.801Z,92.20
2018-12-18T02:08:27.504Z,92.30
2018-12-18T02:10:56.225Z,92.60
2018-12-18T02:13:24.818Z,92.50
2018-12-18T02:15:53.449Z,92.70
2018-12-18T02:18:22.193Z,92.90
2018-12-18T02:20:50.808Z,92.50
2018-12-18T02:23:19.952Z,92.20
2018-12-18T02:25:48.582Z,92.20
2018-12-18T02:28:17.755Z,92.30
2018-12-18T02:30:47.213Z,92.20
2018-12-18T02:33:15.898Z,92.10
2018-12-18T02:35:45.080Z,92.20
2018-12-18T02:38:13.693Z,92.30
2018-12-18T02:40:42.301Z,92.50
2018-12-18T02:43:11.116Z,92.40
2018-12-18T02:45:40.157Z,92.30
2018-12-18T02:48:08.839Z,92.30
2018-12-18T02:50:37.478Z,92.70
2018-12-18T02:53:06.072Z,92.60
2018-12-18T02:55:34.716Z,92.40
2018-12-18T02:58:03.323Z,92.40
2018-12-18T03:00:32.064Z,92.60
2018-12-18T03:03:00.702Z,92.60
2018-12-18T03:05:29.337Z,92.60
2018-12-18T03:07:58.622Z,92.80
2018-12-18T03:10:27.259Z,92.90
2018-12-18T03:12:55.897Z,93.00
2018-12-18T03:15:25.082Z,92.80
2018-12-18T03:17:53.798Z,92.70
2018-12-18T03:20:22.399Z,92.90
2018-12-18T03:22:51.158Z,92.90
2018-12-18T03:25:27.140Z,92.70
2018-12-18T03:27:55.735Z,92.90
2018-12-18T03:30:24.360Z,92.70
2018-12-18T03:32:56.117Z,92.60
2018-12-18T03:35:24.779Z,92.70
2018-12-18T03:37:53.361Z,92.70
2018-12-18T03:40:22.035Z,92.80
2018-12-18T03:42:50.666Z,93.00
2018-12-18T03:45:19.328Z,93.10
2018-12-18T03:47:47.974Z,92.90
2018-12-18T03:50:16.685Z,92.80
2018-12-18T03:52:45.292Z,92.70
2018-12-18T03:55:13.872Z,93.20
2018-12-18T03:57:43.163Z,92.80
2018-12-18T04:00:12.502Z,92.80
2018-12-18T04:02:41.144Z,92.70
2018-12-18T04:05:09.873Z,92.80
2018-12-18T04:07:38.461Z,93.00
2018-12-18T04:10:07.440Z,92.80
2018-12-18T04:12:36.041Z,92.90
2018-12-18T04:15:08.220Z,92.80
2018-12-18T04:17:36.957Z,92.90
2018-12-18T04:20:05.604Z,92.90
2018-12-18T04:22:34.269Z,92.60
2018-12-18T04:25:02.923Z,92.80
2018-12-18T04:27:32.421Z,92.70
2018-12-18T04:30:01.109Z,92.50
2018-12-18T04:32:29.899Z,92.60
2018-12-18T04:34:59.203Z,92.60
2018-12-18T04:37:27.864Z,92.50
2018-12-18T04:39:56.503Z,92.70
2018-12-18T04:42:25.113Z,92.70
2018-12-18T04:44:54.065Z,92.90
2018-12-18T04:47:22.723Z,92.80
2018-12-18T04:49:51.418Z,92.90
2018-12-18T04:52:20.139Z,92.80
2018-12-18T04:54:48.756Z,93.10
2018-12-18T04:57:17.362Z,92.60
2018-12-18T04:59:46.015Z,92.50
2018-12-18T05:02:14.648Z,92.60
2018-12-18T05:04:49.931Z,92.70
2018-12-18T05:07:14.019Z,92.80
2018-12-18T05:09:42.647Z,93.10
2018-12-18T05:12:11.848Z,93.10
2018-12-18T05:14:40.484Z,93.00
2018-12-18T05:17:09.127Z,93.10
2018-12-18T05:19:37.742Z,93.30
2018-12-18T05:22:06.503Z,93.10
2018-12-18T05:24:35.096Z,93.20
2018-12-18T05:27:03.856Z,93.20
2018-12-18T05:29:32.449Z,93.20
2018-12-18T05:32:01.081Z,93.30
2018-12-18T05:34:29.773Z,93.20
2018-12-18T05:36:58.405Z,93.30
2018-12-18T05:39:27.007Z,93.00
2018-12-18T05:41:55.691Z,92.90
2018-12-18T05:44:24.443Z,92.90
2018-12-18T05:46:53.087Z,92.90
2018-12-18T05:49:21.773Z,92.90
2018-12-18T05:51:50.441Z,93.00
2018-12-18T05:54:19.739Z,92.60
2018-12-18T05:56:48.410Z,92.80
2018-12-18T05:59:17.197Z,92.90
2018-12-18T06:01:46.482Z,92.90
2018-12-18T06:04:15.719Z,92.90
2018-12-18T06:06:44.389Z,92.90
2018-12-18T06:09:13.124Z,92.90
2018-12-18T06:11:46.478Z,92.90
2018-12-18T06:14:15.075Z,92.30
2018-12-18T06:16:43.701Z,92.20
2018-12-18T06:19:12.316Z,92.00
2018-12-18T06:21:40.952Z,92.20
2018-12-18T06:24:09.599Z,92.20
2018-12-18T06:26:38.366Z,91.90
2018-12-18T06:29:06.969Z,91.80
2018-12-18T06:31:35.533Z,92.10
2018-12-18T06:34:04.198Z,92.20
2018-12-18T06:36:33.587Z,92.30
2018-12-18T06:39:02.278Z,92.20
2018-12-18T06:41:30.944Z,92.10
2018-12-18T06:43:59.574Z,91.90
2018-12-18T06:46:28.156Z,92.00
2018-12-18T06:48:56.782Z,92.10
2018-12-18T06:51:25.552Z,92.10
2018-12-18T06:53:54.164Z,92.20
2018-12-18T06:56:22.798Z,91.70
2018-12-18T06:58:51.400Z,91.80
2018-12-18T07:01:20.030Z,91.80
2018-12-18T07:03:48.713Z,91.80
2018-12-18T07:06:17.423Z,91.60
2018-12-18T07:08:46.088Z,91.50
2018-12-18T07:11:14.916Z,91.80
2018-12-18T07:13:43.679Z,91.60
2018-12-18T07:16:12.277Z,91.60
2018-12-18T07:18:40.936Z,91.60
2018-12-18T07:21:09.546Z,92.10
2018-12-18T07:23:38.299Z,92.30
2018-12-18T07:26:06.940Z,92.20
2018-12-18T07:28:35.539Z,92.20
2018-12-18T07:31:05.785Z,92.20
2018-12-18T07:33:34.422Z,91.80
2018-12-18T07:36:03.030Z,91.80
2018-12-18T07:38:31.639Z,91.90
2018-12-18T07:41:00.227Z,91.90
2018-12-18T07:43:28.935Z,91.50
2018-12-18T07:45:57.553Z,91.40
2018-12-18T07:48:30.130Z,91.50
2018-12-18T07:50:58.772Z,91.60
2018-12-18T07:53:27.642Z,91.40
2018-12-18T07:56:00.256Z,91.40
2018-12-18T07:58:27.037Z,91.20
2018-12-18T08:00:55.638Z,91.10
2018-12-18T08:03:24.278Z,91.30
2018-12-18T08:05:52.973Z,91.60
2018-12-18T08:08:21.644Z,91.50
2018-12-18T08:10:50.364Z,91.50
2018-12-18T08:13:18.949Z,91.60
2018-12-18T08:15:47.732Z,91.50
2018-12-18T08:18:16.458Z,91.60
2018-12-18T08:20:46.255Z,91.70
2018-12-18T08:23:15.063Z,91.90
2018-12-18T08:25:43.655Z,92.00
2018-12-18T08:28:13.074Z,91.80
2018-12-18T08:30:42.350Z,91.90
2018-12-18T08:33:10.958Z,91.50
2018-12-18T08:35:39.610Z,91.40
2018-12-18T08:38:08.228Z,91.40
2018-12-18T08:40:36.889Z,91.50
2018-12-18T08:43:05.548Z,91.50
2018-12-18T08:45:34.128Z,91.60
2018-12-18T08:48:02.740Z,91.50
2018-12-18T08:50:31.394Z,91.30
2018-12-18T08:53:00.047Z,91.20
2018-12-18T08:55:28.992Z,91.30
2018-12-18T08:57:57.581Z,91.40
2018-12-18T09:00:26.211Z,91.20
2018-12-18T09:02:55.624Z,91.20
2018-12-18T09:05:24.452Z,91.40
2018-12-18T09:07:53.077Z,91.10
2018-12-18T09:10:21.874Z,91.10
2018-12-18T09:12:50.571Z,90.70
2018-12-18T09:15:24.396Z,90.90
2018-12-18T09:17:53.112Z,90.60
2018-12-18T09:20:21.868Z,90.50
2018-12-18T09:22:50.522Z,90.40
2018-12-18T09:25:19.098Z,90.70
2018-12-18T09:27:47.728Z,90.70
2018-12-18T09:30:16.420Z,90.70
2018-12-18T09:32:45.059Z,90.60
2018-12-18T09:35:14.286Z,90.40
2018-12-18T09:37:43.620Z,90.50
2018-12-18T09:40:12.246Z,90.20
2018-12-18T09:42:46.313Z,90.30
2018-12-18T09:45:15.632Z,90.20
2018-12-18T09:47:44.212Z,90.20
2018-12-18T09:50:13.106Z,90.20
2018-12-18T09:52:41.752Z,90.20
2018-12-18T09:55:10.364Z,90.60
2018-12-18T09:57:44.506Z,90.30
2018-12-18T10:00:13.251Z,90.00
2018-12-18T10:02:41.911Z,89.70
2018-12-18T10:05:10.518Z,89.50
2018-12-18T10:07:39.120Z,89.40
2018-12-18T10:10:08.451Z,89.20
2018-12-18T10:12:42.318Z,88.90
2018-12-18T10:15:10.956Z,88.90
2018-12-18T10:17:39.641Z,88.80
2018-12-18T10:20:09.080Z,89.00
2018-12-18T10:22:37.686Z,89.10
2018-12-18T10:25:06.520Z,89.40
2018-12-18T10:27:35.238Z,90.00
2018-12-18T10:30:04.185Z,90.10
2018-12-18T10:32:32.817Z,90.20
2018-12-18T10:35:01.441Z,90.00
2018-12-18T10:37:30.109Z,89.70
2018-12-18T10:39:58.730Z,89.90
2018-12-18T10:42:27.402Z,90.00
2018-12-18T10:44:56.021Z,90.10
2018-12-18T10:47:24.667Z,89.90
2018-12-18T10:49:53.301Z,90.30
2018-12-18T10:52:21.892Z,90.10
2018-12-18T10:54:50.478Z,90.00
2018-12-18T10:57:19.148Z,89.80
2018-12-18T10:59:47.992Z,89.20
2018-12-18T11:02:16.636Z,89.30
2018-12-18T11:04:45.307Z,89.00
2018-12-18T11:07:14.543Z,89.30
2018-12-18T11:09:43.148Z,89.00
2018-12-18T11:12:11.811Z,88.40
2018-12-18T11:14:40.422Z,88.90
2018-12-18T11:17:09.135Z,89.00
2018-12-18T11:19:37.855Z,89.00
2018-12-18T11:22:06.531Z,90.00
2018-12-18T11:24:35.203Z,89.50
2018-12-18T11:27:03.827Z,88.50
2018-12-18T11:29:32.402Z,88.20
2018-12-18T11:32:00.992Z,88.50
2018-12-18T11:34:29.651Z,88.40
2018-12-18T11:36:58.349Z,89.10
2018-12-18T11:39:27.057Z,89.20
2018-12-18T11:41:55.703Z,88.80
2018-12-18T11:44:24.328Z,88.50
2018-12-18T11:46:52.935Z,88.10
2018-12-18T11:49:21.813Z,87.60
2018-12-18T11:51:50.411Z,87.40
2018-12-18T11:54:19.027Z,87.80
2018-12-18T11:56:47.645Z,87.90
2018-12-18T11:59:16.387Z,87.70
2018-12-18T12:01:45.119Z,87.10
2018-12-18T12:04:13.737Z,86.90
2018-12-18T12:06:42.389Z,87.00
2018-12-18T12:09:10.993Z,87.30
2018-12-18T12:11:40.351Z,87.60
2018-12-18T12:14:09.203Z,87.90
2018-12-18T12:16:37.915Z,88.30
2018-12-18T12:19:06.573Z,88.00
2018-12-18T12:21:35.189Z,87.40
2018-12-18T12:24:03.808Z,87.50
2018-12-18T12:26:34.189Z,87.20
2018-12-18T12:29:03.072Z,87.90
2018-12-18T12:31:31.707Z,87.20
2018-12-18T12:34:00.379Z,86.90
2018-12-18T12:36:29.768Z,86.70
2018-12-18T12:38:58.714Z,86.50
2018-12-18T12:41:27.387Z,86.90
2018-12-18T12:43:56.013Z,87.40
2018-12-18T12:46:24.588Z,87.00
2018-12-18T12:48:54.581Z,86.80
2018-12-18T12:51:23.649Z,87.20
2018-12-18T12:53:52.227Z,86.80
2018-12-18T12:56:20.868Z,88.30
2018-12-18T12:58:49.457Z,87.20
2018-12-18T13:01:18.093Z,87.60
2018-12-18T13:03:46.803Z,87.90
2018-12-18T13:06:15.437Z,88.30
2018-12-18T13:08:44.040Z,88.40
2018-12-18T13:11:12.681Z,89.10
2018-12-18T13:13:41.385Z,90.00
2018-12-18T13:16:10.053Z,89.60
2018-12-18T13:18:38.780Z,89.70
2018-12-18T13:21:07.425Z,89.90
2018-12-18T13:23:36.015Z,90.00
2018-12-18T13:26:04.777Z,90.10
2018-12-18T13:28:35.422Z,90.30
2018-12-18T13:31:04.030Z,90.30
2018-12-18T13:33:32.624Z,90.40
2018-12-18T13:36:01.281Z,90.60
2018-12-18T13:38:29.978Z,90.50
2018-12-18T13:40:58.578Z,90.70
2018-12-18T13:43:27.200Z,90.80
2018-12-18T13:45:56.439Z,91.00
2018-12-18T13:48:25.051Z,91.00
2018-12-18T13:50:53.618Z,91.30
2018-12-18T13:53:22.246Z,91.30
2018-12-18T13:55:50.855Z,91.50
2018-12-18T13:58:19.443Z,91.50
2018-12-18T14:00:48.132Z,91.90
2018-12-18T14:03:16.895Z,91.60
2018-12-18T14:05:45.529Z,91.50
2018-12-18T14:08:14.172Z,91.50
2018-12-18T14:10:42.773Z,91.60
2018-12-18T14:13:11.343Z,91.60
2018-12-18T14:15:47.733Z,91.50
2018-12-18T14:18:16.378Z,91.50
2018-12-18T14:20:45.014Z,91.40
2018-12-18T14:23:13.662Z,91.50
2018-12-18T14:25:42.280Z,91.50
2018-12-18T14:28:10.897Z,91.50
2018-12-18T14:30:39.488Z,91.60
2018-12-18T14:33:08.081Z,91.70
2018-12-18T14:35:36.867Z,91.80
2018-12-18T14:38:05.534Z,91.50
2018-12-18T14:40:34.151Z,91.70
2018-12-18T14:43:02.740Z,91.70
2018-12-18T14:45:31.654Z,91.80
2018-12-18T14:48:00.208Z,91.50
2018-12-18T14:50:28.944Z,91.60
2018-12-18T14:52:57.583Z,91.10
2018-12-18T14:55:27.165Z,91.40
2018-12-18T14:57:56.329Z,91.10
2018-12-18T15:00:24.960Z,91.00
2018-12-18T15:02:54.389Z,91.00
2018-12-18T15:05:23.809Z,91.00
2018-12-18T15:07:52.431Z,91.30
2018-12-18T15:10:21.030Z,91.10
2018-12-18T15:12:50.203Z,91.40
2018-12-18T15:15:19.192Z,91.10
2018-12-18T15:17:51.027Z,91.10
2018-12-18T15:20:19.626Z,91.10
2018-12-18T15:22:48.247Z,91.30
2018-12-18T15:25:17.602Z,91.10
2018-12-18T15:27:46.214Z,91.40
2018-12-18T15:30:14.852Z,91.40
2018-12-18T15:32:43.633Z,91.40
2018-12-18T15:35:12.746Z,91.40
2018-12-18T15:37:42.100Z,91.40
2018-12-18T15:40:10.839Z,91.20
2018-12-18T15:42:39.463Z,91.30
2018-12-18T15:45:08.786Z,91.40
2018-12-18T15:47:37.452Z,91.40
2018-12-18T15:50:08.081Z,91.60
2018-12-18T15:52:36.887Z,91.50
2018-12-18T15:55:06.155Z,91.90
2018-12-18T15:57:34.849Z,91.60
2018-12-18T16:00:03.704Z,91.50
2018-12-18T16:02:32.365Z,91.80
2018-12-18T16:05:01.057Z,91.70
2018-12-18T16:07:30.654Z,91.50
2018-12-18T16:09:59.244Z,91.60
2018-12-18T16:12:27.941Z,91.60
2018-12-18T16:14:56.658Z,91.70
2018-12-18T16:17:25.324Z,91.90
2018-12-18T16:19:53.985Z,91.80
2018-12-18T16:22:22.586Z,91.90
2018-12-18T16:24:51.230Z,92.00
2018-12-18T16:27:20.198Z,92.00
2018-12-18T16:29:48.804Z,92.10
2018-12-18T16:32:17.494Z,92.10
2018-12-18T16:34:46.100Z,92.00
2018-12-18T16:37:14.712Z,92.00
2018-12-18T16:39:43.380Z,92.00
2018-12-18T16:42:12.014Z,91.90
2018-12-18T16:44:40.632Z,91.80
2018-12-18T16:47:09.280Z,91.80
2018-12-18T16:49:37.906Z,91.90
2018-12-18T16:52:06.688Z,91.90
2018-12-18T16:54:35.484Z,91.70
2018-12-18T16:57:04.206Z,92.00
2018-12-18T17:02:07.977Z,91.80
2018-12-18T17:04:36.610Z,91.90
2018-12-18T17:07:05.202Z,92.20
2018-12-18T17:09:34.089Z,92.00
2018-12-18T17:12:02.838Z,92.00
2018-12-18T17:14:31.443Z,92.10
2018-12-18T17:17:00.107Z,92.20
2018-12-18T17:19:29.647Z,92.30
2018-12-18T17:21:59.234Z,92.20
2018-12-18T17:24:27.906Z,92.80
2018-12-18T17:26:56.511Z,92.30
2018-12-18T17:29:28.454Z,92.20
2018-12-18T17:31:57.040Z,92.40
2018-12-18T17:34:25.626Z,92.50
2018-12-18T17:36:54.299Z,92.20
2018-12-18T17:39:22.921Z,92.30
2018-12-18T17:41:51.664Z,92.30
2018-12-18T17:44:20.333Z,92.30
2018-12-18T17:46:48.993Z,92.30
2018-12-18T17:49:17.619Z,92.30
2018-12-18T17:51:46.918Z,92.40
2018-12-18T17:54:26.906Z,92.60
2018-12-18T17:56:56.135Z,92.60
2018-12-18T17:59:24.717Z,92.70
2018-12-18T18:01:53.378Z,92.60
2018-12-18T18:04:22.707Z,92.50
2018-12-18T18:06:51.329Z,92.50
2018-12-18T18:09:19.940Z,92.50
2018-12-18T18:11:48.668Z,92.50
2018-12-18T18:14:17.861Z,92.70
2018-12-18T18:16:46.538Z,92.80
2018-12-18T18:19:15.160Z,92.80
2018-12-18T18:21:43.795Z,92.70
2018-12-18T18:24:12.600Z,92.70
2018-12-18T18:26:41.262Z,92.70
2018-12-18T18:29:09.856Z,92.60
2018-12-18T18:31:38.447Z,92.80
2018-12-18T18:34:07.120Z,92.90
2018-12-18T18:36:35.721Z,92.80
2018-12-18T18:39:07.436Z,92.80
2018-12-18T18:41:36.050Z,93.10
2018-12-18T18:44:04.842Z,93.10
2018-12-18T18:46:33.772Z,93.00
2018-12-18T18:49:02.395Z,93.10
2018-12-18T18:51:31.202Z,93.10
2018-12-18T18:54:00.128Z,93.20
2018-12-18T18:56:29.014Z,93.20
2018-12-18T18:58:57.629Z,93.20
2018-12-18T19:01:27.084Z,93.30
2018-12-18T19:03:55.645Z,93.20
2018-12-18T19:06:24.231Z,93.10
2018-12-18T19:08:52.841Z,93.10
2018-12-18T19:11:21.594Z,93.20
2018-12-18T19:13:50.250Z,93.20
2018-12-18T19:16:18.916Z,93.30
2018-12-18T19:18:47.577Z,93.30
2018-12-18T19:21:16.228Z,93.20
2018-12-18T19:23:44.981Z,93.30
2018-12-18T19:26:13.649Z,93.30
2018-12-18T19:28:42.257Z,93.40
2018-12-18T19:31:10.910Z,93.40
2018-12-18T19:33:39.517Z,93.40
2018-12-18T19:36:08.120Z,93.30
2018-12-18T19:38:36.760Z,93.40
2018-12-18T19:41:05.410Z,93.40
2018-12-18T19:43:34.038Z,93.40
2018-12-18T19:46:02.744Z,93.30
2018-12-18T19:48:31.786Z,93.40
2018-12-18T19:51:00.491Z,93.40
2018-12-18T19:53:29.136Z,93.40
2018-12-18T19:55:57.784Z,93.40
2018-12-18T19:58:26.398Z,93.40
2018-12-18T20:00:55.056Z,93.50
2018-12-18T20:03:23.686Z,93.50
2018-12-18T20:05:52.310Z,93.40
2018-12-18T20:08:21.018Z,93.40
2018-12-18T20:10:49.633Z,93.40
2018-12-18T20:13:18.354Z,93.30
2018-12-18T20:15:47.140Z,93.50
2018-12-18T20:18:24.339Z,93.80
2018-12-18T20:20:53.004Z,93.90
2018-12-18T20:23:21.710Z,93.80
2018-12-18T20:25:50.579Z,94.20
2018-12-18T20:28:19.266Z,94.20
2018-12-18T20:30:47.955Z,94.30
2018-12-18T20:33:16.588Z,94.40
2018-12-18T20:35:45.251Z,94.50
2018-12-18T20:38:16.946Z,94.60
2018-12-18T20:40:44.706Z,94.80
2018-12-18T20:43:13.355Z,94.80
2018-12-18T20:45:41.993Z,94.90
2018-12-18T20:48:10.617Z,95.20
2018-12-18T20:50:39.249Z,95.20
2018-12-18T20:53:18.062Z,95.20
2018-12-18T20:55:46.762Z,95.20
2018-12-18T20:58:15.472Z,95.20
2018-12-18T21:00:44.146Z,95.00
2018-12-18T21:03:12.873Z,95.10
2018-12-18T21:05:41.549Z,95.10
2018-12-18T21:08:10.332Z,95.10
2018-12-18T21:10:39.075Z,95.10
2018-12-18T21:13:13.200Z,95.10
2018-12-18T21:15:41.921Z,95.30
2018-12-18T21:18:10.630Z,95.80
2018-12-18T21:20:41.909Z,95.80
2018-12-18T21:23:10.586Z,96.00
2018-12-18T21:25:39.379Z,96.10
2018-12-18T21:28:08.085Z,96.00
2018-12-18T21:30:36.775Z,96.00
2018-12-18T21:33:06.811Z,96.00
2018-12-18T21:35:35.469Z,96.00
2018-12-18T21:38:04.191Z,96.00
2018-12-18T21:40:32.877Z,95.90
2018-12-18T21:43:12.013Z,95.80
2018-12-18T21:45:40.671Z,95.80
2018-12-18T21:48:10.035Z,95.70
2018-12-18T21:50:38.705Z,95.70
2018-12-18T21:53:07.325Z,95.60
2018-12-18T21:55:39.388Z,95.70
2018-12-18T21:58:07.974Z,95.80
2018-12-18T22:00:36.625Z,95.80
2018-12-18T22:03:05.297Z,95.80
2018-12-18T22:05:33.939Z,95.70
2018-12-18T22:08:02.588Z,95.60
2018-12-18T22:10:31.250Z,95.50
2018-12-18T22:12:59.952Z,95.60
2018-12-18T22:15:28.683Z,95.60
2018-12-18T22:17:57.328Z,95.50
2018-12-18T22:20:26.062Z,95.50
2018-12-18T22:22:54.748Z,95.70
2018-12-18T22:25:23.404Z,95.70
2018-12-18T22:27:52.486Z,95.60
2018-12-18T22:30:21.252Z,95.60
2018-12-18T22:32:49.911Z,95.70
2018-12-18T22:35:18.516Z,95.70
2018-12-18T22:37:47.171Z,95.70
2018-12-18T22:40:15.917Z,95.80
2018-12-18T22:42:44.578Z,95.80
2018-12-18T22:45:13.193Z,95.80
2018-12-18T22:47:41.864Z,95.50
2018-12-18T22:50:10.499Z,95.70
2018-12-18T22:52:39.123Z,95.70
2018-12-18T22:55:07.841Z,95.60
2018-12-18T22:57:36.477Z,95.50
2018-12-18T23:00:06.503Z,95.40
2018-12-18T23:02:35.207Z,95.30
2018-12-18T23:05:04.350Z,95.20
2018-12-18T23:07:33.055Z,94.90
2018-12-18T23:10:01.746Z,95.00
2018-12-18T23:12:30.412Z,95.00
2018-12-18T23:14:59.067Z,95.00
2018-12-18T23:17:27.773Z,94.90
2018-12-18T23:19:56.390Z,94.80
2018-12-18T23:22:25.849Z,94.70
2018-12-18T23:24:54.527Z,94.60
2018-12-18T23:27:23.239Z,94.60
2018-12-18T23:29:51.909Z,94.70
2018-12-18T23:32:20.631Z,94.70
2018-12-18T23:34:49.283Z,94.60
2018-12-18T23:37:17.945Z,94.80
2018-12-18T23:39:46.615Z,94.70
2018-12-18T23:42:15.617Z,94.70
2018-12-18T23:44:44.215Z,94.60
2018-12-18T23:47:12.885Z,94.60
2018-12-18T23:49:41.553Z,94.70
2018-12-18T23:52:10.347Z,94.70
2018-12-18T23:54:39.043Z,94.60
2018-12-18T23:57:07.705Z,94.70
2018-12-18T23:59:36.346Z,94.70
